sensor_id;sensor_type;location;lat;lon;timestamp;pressure;altitude;pressure_sealevel;temperature;humidity
73624;BME280;61921;53.226;-1.296;2023-08-31T00:01:58;99756.27;;;12.86;86.13
73624;BME280;61921;53.226;-1.296;2023-08-31T00:04:23;99754.09;;;12.62;88.35
73624;BME280;61921;53.226;-1.296;2023-08-31T00:06:48;99743.65;;;12.63;88.75
73624;BME280;61921;53.226;-1.296;2023-08-31T00:09:14;99738.17;;;12.60;89.08
73624;BME280;61921;53.226;-1.296;2023-08-31T00:11:39;99739.45;;;12.45;89.09
73624;BME280;61921;53.226;-1.296;2023-08-31T00:14:04;99741.36;;;12.60;88.25
73624;BME280;61921;53.226;-1.296;2023-08-31T00:16:30;99735.61;;;12.58;88.38
73624;BME280;61921;53.226;-1.296;2023-08-31T00:18:56;99731.28;;;12.57;88.31
73624;BME280;61921;53.226;-1.296;2023-08-31T00:21:21;99729.92;;;12.63;87.89
73624;BME280;61921;53.226;-1.296;2023-08-31T00:23:46;99730.91;;;12.56;89.23
73624;BME280;61921;53.226;-1.296;2023-08-31T00:26:12;99732.44;;;12.62;88.51
73624;BME280;61921;53.226;-1.296;2023-08-31T00:28:36;99734.68;;;12.57;89.21
73624;BME280;61921;53.226;-1.296;2023-08-31T00:31:02;99733.39;;;12.21;90.39
73624;BME280;61921;53.226;-1.296;2023-08-31T00:33:27;99731.37;;;12.41;89.44
73624;BME280;61921;53.226;-1.296;2023-08-31T00:35:52;99730.25;;;12.29;90.69
73624;BME280;61921;53.226;-1.296;2023-08-31T00:38:18;99725.18;;;12.40;89.26
73624;BME280;61921;53.226;-1.296;2023-08-31T00:40:44;99721.07;;;12.28;90.03
73624;BME280;61921;53.226;-1.296;2023-08-31T00:43:09;99719.76;;;12.20;92.90
73624;BME280;61921;53.226;-1.296;2023-08-31T00:45:34;99720.73;;;12.23;92.90
73624;BME280;61921;53.226;-1.296;2023-08-31T00:48:00;99721.83;;;12.27;91.75
73624;BME280;61921;53.226;-1.296;2023-08-31T00:50:25;99718.98;;;12.09;92.53
73624;BME280;61921;53.226;-1.296;2023-08-31T00:52:50;99722.37;;;11.96;95.01
73624;BME280;61921;53.226;-1.296;2023-08-31T00:55:16;99721.27;;;11.99;95.38
73624;BME280;61921;53.226;-1.296;2023-08-31T00:57:41;99720.65;;;12.04;95.29
73624;BME280;61921;53.226;-1.296;2023-08-31T01:00:07;99719.75;;;12.15;94.53
73624;BME280;61921;53.226;-1.296;2023-08-31T01:02:36;99714.10;;;12.03;96.60
73624;BME280;61921;53.226;-1.296;2023-08-31T01:05:01;99714.00;;;12.04;97.20
73624;BME280;61921;53.226;-1.296;2023-08-31T01:07:30;99713.60;;;12.15;96.24
73624;BME280;61921;53.226;-1.296;2023-08-31T01:09:54;99710.99;;;12.30;94.24
73624;BME280;61921;53.226;-1.296;2023-08-31T01:12:18;99713.51;;;12.25;93.73
73624;BME280;61921;53.226;-1.296;2023-08-31T01:14:42;99713.88;;;12.13;95.79
73624;BME280;61921;53.226;-1.296;2023-08-31T01:17:04;99720.38;;;11.98;96.83
73624;BME280;61921;53.226;-1.296;2023-08-31T01:19:40;99721.76;;;12.09;95.40
73624;BME280;61921;53.226;-1.296;2023-08-31T01:21:59;99719.67;;;12.10;93.07
73624;BME280;61921;53.226;-1.296;2023-08-31T01:24:21;99716.16;;;12.03;95.22
73624;BME280;61921;53.226;-1.296;2023-08-31T01:26:46;99718.70;;;12.16;93.20
73624;BME280;61921;53.226;-1.296;2023-08-31T01:29:12;99723.03;;;12.17;91.92
73624;BME280;61921;53.226;-1.296;2023-08-31T01:31:42;99729.68;;;11.95;92.51
73624;BME280;61921;53.226;-1.296;2023-08-31T01:34:02;99725.37;;;12.07;92.09
73624;BME280;61921;53.226;-1.296;2023-08-31T01:36:29;99722.06;;;12.06;91.38
73624;BME280;61921;53.226;-1.296;2023-08-31T01:38:58;99723.67;;;12.05;90.84
73624;BME280;61921;53.226;-1.296;2023-08-31T01:41:19;99722.40;;;12.01;90.49
73624;BME280;61921;53.226;-1.296;2023-08-31T01:43:44;99718.96;;;11.98;90.05
73624;BME280;61921;53.226;-1.296;2023-08-31T01:46:09;99715.30;;;11.94;89.73
73624;BME280;61921;53.226;-1.296;2023-08-31T01:48:38;99715.37;;;11.93;89.50
73624;BME280;61921;53.226;-1.296;2023-08-31T01:50:59;99721.65;;;11.78;91.30
73624;BME280;61921;53.226;-1.296;2023-08-31T01:53:25;99726.83;;;11.79;91.56
73624;BME280;61921;53.226;-1.296;2023-08-31T01:55:50;99723.98;;;11.77;91.80
73624;BME280;61921;53.226;-1.296;2023-08-31T01:58:15;99726.23;;;11.77;91.87
73624;BME280;61921;53.226;-1.296;2023-08-31T02:00:41;99729.76;;;11.82;91.70
73624;BME280;61921;53.226;-1.296;2023-08-31T02:03:06;99728.18;;;11.77;92.73
73624;BME280;61921;53.226;-1.296;2023-08-31T02:05:32;99729.29;;;11.65;94.14
73624;BME280;61921;53.226;-1.296;2023-08-31T02:07:57;99729.35;;;11.78;93.68
73624;BME280;61921;53.226;-1.296;2023-08-31T02:10:22;99732.26;;;11.69;95.35
73624;BME280;61921;53.226;-1.296;2023-08-31T02:12:48;99734.96;;;11.73;95.08
73624;BME280;61921;53.226;-1.296;2023-08-31T02:15:13;99737.52;;;11.79;95.19
73624;BME280;61921;53.226;-1.296;2023-08-31T02:17:39;99738.36;;;11.79;94.69
73624;BME280;61921;53.226;-1.296;2023-08-31T02:20:06;99732.72;;;11.80;95.21
73624;BME280;61921;53.226;-1.296;2023-08-31T02:22:30;99730.68;;;11.81;95.33
73624;BME280;61921;53.226;-1.296;2023-08-31T02:24:55;99732.14;;;11.72;96.51
73624;BME280;61921;53.226;-1.296;2023-08-31T02:27:20;99730.98;;;11.30;99.99
73624;BME280;61921;53.226;-1.296;2023-08-31T02:29:46;99729.40;;;11.27;100.00
73624;BME280;61921;53.226;-1.296;2023-08-31T02:32:16;99726.50;;;11.31;99.66
73624;BME280;61921;53.226;-1.296;2023-08-31T02:34:37;99724.09;;;11.30;99.13
73624;BME280;61921;53.226;-1.296;2023-08-31T02:37:02;99721.79;;;11.47;98.68
73624;BME280;61921;53.226;-1.296;2023-08-31T02:39:27;99725.65;;;11.54;98.55
73624;BME280;61921;53.226;-1.296;2023-08-31T02:41:53;99727.24;;;11.62;97.68
73624;BME280;61921;53.226;-1.296;2023-08-31T02:44:18;99724.44;;;11.48;98.40
73624;BME280;61921;53.226;-1.296;2023-08-31T02:46:44;99725.07;;;11.40;100.00
73624;BME280;61921;53.226;-1.296;2023-08-31T02:49:09;99724.77;;;11.60;98.26
73624;BME280;61921;53.226;-1.296;2023-08-31T02:51:35;99724.86;;;11.63;96.92
73624;BME280;61921;53.226;-1.296;2023-08-31T02:54:00;99720.03;;;11.58;96.38
73624;BME280;61921;53.226;-1.296;2023-08-31T02:56:25;99725.29;;;11.63;95.78
73624;BME280;61921;53.226;-1.296;2023-08-31T02:58:51;99722.07;;;11.59;95.19
73624;BME280;61921;53.226;-1.296;2023-08-31T03:01:16;99722.53;;;11.56;95.40
73624;BME280;61921;53.226;-1.296;2023-08-31T03:03:42;99723.78;;;11.64;94.72
73624;BME280;61921;53.226;-1.296;2023-08-31T03:06:07;99722.91;;;11.63;94.13
73624;BME280;61921;53.226;-1.296;2023-08-31T03:08:32;99716.36;;;11.65;94.08
73624;BME280;61921;53.226;-1.296;2023-08-31T03:10:58;99711.29;;;11.65;94.02
73624;BME280;61921;53.226;-1.296;2023-08-31T03:13:23;99705.97;;;11.66;94.00
73624;BME280;61921;53.226;-1.296;2023-08-31T03:15:48;99701.75;;;11.66;93.38
73624;BME280;61921;53.226;-1.296;2023-08-31T03:18:14;99701.70;;;11.63;93.16
73624;BME280;61921;53.226;-1.296;2023-08-31T03:20:39;99702.56;;;11.62;93.60
73624;BME280;61921;53.226;-1.296;2023-08-31T03:23:05;99699.82;;;11.59;94.01
73624;BME280;61921;53.226;-1.296;2023-08-31T03:25:30;99695.84;;;11.57;94.34
73624;BME280;61921;53.226;-1.296;2023-08-31T03:27:56;99693.17;;;11.52;94.79
73624;BME280;61921;53.226;-1.296;2023-08-31T03:30:21;99693.11;;;11.58;94.20
73624;BME280;61921;53.226;-1.296;2023-08-31T03:32:46;99692.26;;;11.61;93.51
73624;BME280;61921;53.226;-1.296;2023-08-31T03:35:13;99691.59;;;11.57;93.09
73624;BME280;61921;53.226;-1.296;2023-08-31T03:37:36;99692.83;;;11.54;92.99
73624;BME280;61921;53.226;-1.296;2023-08-31T03:40:02;99693.66;;;11.47;93.08
73624;BME280;61921;53.226;-1.296;2023-08-31T03:42:27;99691.64;;;11.44;92.97
73624;BME280;61921;53.226;-1.296;2023-08-31T03:44:52;99690.06;;;11.40;94.11
73624;BME280;61921;53.226;-1.296;2023-08-31T03:47:18;99688.50;;;11.36;94.32
73624;BME280;61921;53.226;-1.296;2023-08-31T03:49:43;99685.46;;;11.31;96.63
73624;BME280;61921;53.226;-1.296;2023-08-31T03:52:09;99686.16;;;11.35;95.63
73624;BME280;61921;53.226;-1.296;2023-08-31T03:54:34;99687.46;;;11.36;95.21
73624;BME280;61921;53.226;-1.296;2023-08-31T03:56:59;99688.26;;;11.38;95.32
73624;BME280;61921;53.226;-1.296;2023-08-31T03:59:25;99685.41;;;11.36;94.50
73624;BME280;61921;53.226;-1.296;2023-08-31T04:01:50;99679.92;;;11.19;97.38
73624;BME280;61921;53.226;-1.296;2023-08-31T04:04:15;99679.30;;;11.15;100.00
73624;BME280;61921;53.226;-1.296;2023-08-31T04:06:41;99682.09;;;11.38;100.00
73624;BME280;61921;53.226;-1.296;2023-08-31T04:09:06;99683.93;;;11.50;99.53
73624;BME280;61921;53.226;-1.296;2023-08-31T04:11:32;99686.66;;;11.56;97.81
73624;BME280;61921;53.226;-1.296;2023-08-31T04:13:57;99688.98;;;11.52;96.55
73624;BME280;61921;53.226;-1.296;2023-08-31T04:16:22;99692.28;;;11.52;96.55
73624;BME280;61921;53.226;-1.296;2023-08-31T04:18:48;99690.33;;;11.54;96.84
73624;BME280;61921;53.226;-1.296;2023-08-31T04:21:13;99693.49;;;11.59;96.71
73624;BME280;61921;53.226;-1.296;2023-08-31T04:23:39;99697.15;;;11.58;96.58
73624;BME280;61921;53.226;-1.296;2023-08-31T04:26:10;99702.04;;;11.58;96.27
73624;BME280;61921;53.226;-1.296;2023-08-31T04:28:29;99707.89;;;11.63;95.88
73624;BME280;61921;53.226;-1.296;2023-08-31T04:30:54;99709.72;;;11.61;95.56
73624;BME280;61921;53.226;-1.296;2023-08-31T04:33:20;99714.76;;;11.69;96.31
73624;BME280;61921;53.226;-1.296;2023-08-31T04:35:45;99711.92;;;11.61;97.23
73624;BME280;61921;53.226;-1.296;2023-08-31T04:38:16;99708.63;;;11.65;97.85
73624;BME280;61921;53.226;-1.296;2023-08-31T04:40:36;99708.22;;;11.65;100.00
73624;BME280;61921;53.226;-1.296;2023-08-31T04:43:01;99710.16;;;11.80;99.19
73624;BME280;61921;53.226;-1.296;2023-08-31T04:45:27;99708.76;;;11.89;98.73
73624;BME280;61921;53.226;-1.296;2023-08-31T04:47:52;99708.85;;;11.93;98.46
73624;BME280;61921;53.226;-1.296;2023-08-31T04:50:17;99709.35;;;11.93;99.23
73624;BME280;61921;53.226;-1.296;2023-08-31T04:52:43;99710.30;;;12.03;99.05
73624;BME280;61921;53.226;-1.296;2023-08-31T04:55:09;99715.91;;;11.93;99.65
73624;BME280;61921;53.226;-1.296;2023-08-31T04:57:34;99719.98;;;12.01;99.67
73624;BME280;61921;53.226;-1.296;2023-08-31T04:59:59;99724.80;;;12.04;99.32
73624;BME280;61921;53.226;-1.296;2023-08-31T05:02:24;99723.41;;;12.02;99.14
73624;BME280;61921;53.226;-1.296;2023-08-31T05:04:49;99725.29;;;12.14;98.67
73624;BME280;61921;53.226;-1.296;2023-08-31T05:07:15;99730.12;;;12.17;98.24
73624;BME280;61921;53.226;-1.296;2023-08-31T05:09:41;99734.17;;;12.15;97.52
73624;BME280;61921;53.226;-1.296;2023-08-31T05:12:06;99735.69;;;12.19;97.81
73624;BME280;61921;53.226;-1.296;2023-08-31T05:14:31;99736.56;;;12.12;97.65
73624;BME280;61921;53.226;-1.296;2023-08-31T05:16:56;99735.80;;;12.17;97.79
73624;BME280;61921;53.226;-1.296;2023-08-31T05:19:22;99735.97;;;12.18;97.80
73624;BME280;61921;53.226;-1.296;2023-08-31T05:21:47;99737.11;;;12.24;97.56
73624;BME280;61921;53.226;-1.296;2023-08-31T05:24:13;99737.02;;;12.20;97.57
73624;BME280;61921;53.226;-1.296;2023-08-31T05:26:39;99734.82;;;12.24;97.86
73624;BME280;61921;53.226;-1.296;2023-08-31T05:29:03;99734.05;;;12.29;97.82
73624;BME280;61921;53.226;-1.296;2023-08-31T05:31:28;99732.91;;;12.32;97.83
73624;BME280;61921;53.226;-1.296;2023-08-31T05:33:54;99730.58;;;12.34;98.29
73624;BME280;61921;53.226;-1.296;2023-08-31T05:36:19;99730.45;;;12.42;98.10
73624;BME280;61921;53.226;-1.296;2023-08-31T05:38:45;99736.54;;;12.44;98.09
73624;BME280;61921;53.226;-1.296;2023-08-31T05:41:09;99736.17;;;12.48;98.27
73624;BME280;61921;53.226;-1.296;2023-08-31T05:43:35;99737.28;;;12.49;98.13
73624;BME280;61921;53.226;-1.296;2023-08-31T05:46:00;99736.95;;;12.52;98.01
73624;BME280;61921;53.226;-1.296;2023-08-31T05:48:25;99737.82;;;12.50;98.22
73624;BME280;61921;53.226;-1.296;2023-08-31T05:50:51;99737.30;;;12.50;98.30
73624;BME280;61921;53.226;-1.296;2023-08-31T05:53:17;99735.73;;;12.60;97.99
73624;BME280;61921;53.226;-1.296;2023-08-31T05:55:41;99737.20;;;12.67;97.62
73624;BME280;61921;53.226;-1.296;2023-08-31T05:58:06;99737.81;;;12.65;97.58
73624;BME280;61921;53.226;-1.296;2023-08-31T06:00:33;99740.57;;;12.75;97.54
73624;BME280;61921;53.226;-1.296;2023-08-31T06:02:57;99744.30;;;12.79;97.37
73624;BME280;61921;53.226;-1.296;2023-08-31T06:05:22;99743.30;;;12.80;97.31
73624;BME280;61921;53.226;-1.296;2023-08-31T06:07:47;99744.99;;;12.86;97.42
73624;BME280;61921;53.226;-1.296;2023-08-31T06:10:14;99748.17;;;12.98;96.83
73624;BME280;61921;53.226;-1.296;2023-08-31T06:12:39;99748.15;;;13.05;96.39
73624;BME280;61921;53.226;-1.296;2023-08-31T06:15:04;99747.67;;;13.09;96.34
73624;BME280;61921;53.226;-1.296;2023-08-31T06:17:29;99750.38;;;13.16;96.24
73624;BME280;61921;53.226;-1.296;2023-08-31T06:19:54;99749.82;;;13.22;96.07
73624;BME280;61921;53.226;-1.296;2023-08-31T06:22:19;99751.07;;;13.25;95.85
73624;BME280;61921;53.226;-1.296;2023-08-31T06:24:44;99750.77;;;13.35;95.46
73624;BME280;61921;53.226;-1.296;2023-08-31T06:27:10;99753.06;;;13.36;95.31
73624;BME280;61921;53.226;-1.296;2023-08-31T06:29:35;99752.56;;;13.40;95.13
73624;BME280;61921;53.226;-1.296;2023-08-31T06:32:01;99754.60;;;13.40;94.94
73624;BME280;61921;53.226;-1.296;2023-08-31T06:34:26;99755.77;;;13.45;94.81
73624;BME280;61921;53.226;-1.296;2023-08-31T06:36:51;99755.00;;;13.50;94.79
73624;BME280;61921;53.226;-1.296;2023-08-31T06:39:16;99748.82;;;13.59;94.47
73624;BME280;61921;53.226;-1.296;2023-08-31T06:41:41;99747.26;;;13.56;94.64
73624;BME280;61921;53.226;-1.296;2023-08-31T06:44:07;99747.38;;;13.62;94.51
73624;BME280;61921;53.226;-1.296;2023-08-31T06:46:32;99744.01;;;13.68;94.55
73624;BME280;61921;53.226;-1.296;2023-08-31T06:48:57;99746.21;;;13.75;94.38
73624;BME280;61921;53.226;-1.296;2023-08-31T06:51:23;99751.37;;;13.83;94.43
73624;BME280;61921;53.226;-1.296;2023-08-31T06:53:49;99752.52;;;13.90;94.47
73624;BME280;61921;53.226;-1.296;2023-08-31T06:56:14;99757.25;;;13.94;94.42
73624;BME280;61921;53.226;-1.296;2023-08-31T06:58:39;99757.66;;;14.00;93.66
73624;BME280;61921;53.226;-1.296;2023-08-31T07:01:06;99758.69;;;14.07;93.82
73624;BME280;61921;53.226;-1.296;2023-08-31T07:03:30;99754.45;;;14.15;94.13
73624;BME280;61921;53.226;-1.296;2023-08-31T07:05:55;99750.41;;;14.11;94.12
73624;BME280;61921;53.226;-1.296;2023-08-31T07:08:20;99749.22;;;14.30;93.90
73624;BME280;61921;53.226;-1.296;2023-08-31T07:10:45;99746.34;;;14.44;92.96
73624;BME280;61921;53.226;-1.296;2023-08-31T07:13:12;99750.97;;;14.55;92.90
73624;BME280;61921;53.226;-1.296;2023-08-31T07:15:37;99751.70;;;14.74;91.96
73624;BME280;61921;53.226;-1.296;2023-08-31T07:18:02;99753.34;;;14.81;91.46
73624;BME280;61921;53.226;-1.296;2023-08-31T07:20:27;99754.33;;;14.96;90.96
73624;BME280;61921;53.226;-1.296;2023-08-31T07:22:53;99756.28;;;15.07;90.00
73624;BME280;61921;53.226;-1.296;2023-08-31T07:25:18;99758.22;;;15.12;90.31
73624;BME280;61921;53.226;-1.296;2023-08-31T07:27:43;99765.12;;;15.26;89.61
73624;BME280;61921;53.226;-1.296;2023-08-31T07:30:09;99767.52;;;15.29;89.60
73624;BME280;61921;53.226;-1.296;2023-08-31T07:32:37;99770.34;;;15.43;89.25
73624;BME280;61921;53.226;-1.296;2023-08-31T07:35:00;99772.26;;;15.54;88.70
73624;BME280;61921;53.226;-1.296;2023-08-31T07:37:26;99773.97;;;15.57;87.99
73624;BME280;61921;53.226;-1.296;2023-08-31T07:39:51;99771.30;;;15.60;87.95
73624;BME280;61921;53.226;-1.296;2023-08-31T07:42:17;99770.33;;;15.45;88.83
73624;BME280;61921;53.226;-1.296;2023-08-31T07:44:42;99771.60;;;15.69;88.55
73624;BME280;61921;53.226;-1.296;2023-08-31T07:47:07;99772.48;;;15.91;88.16
73624;BME280;61921;53.226;-1.296;2023-08-31T07:49:33;99773.99;;;16.04;87.49
73624;BME280;61921;53.226;-1.296;2023-08-31T07:51:58;99776.01;;;16.35;86.13
73624;BME280;61921;53.226;-1.296;2023-08-31T07:54:24;99780.61;;;16.61;84.71
73624;BME280;61921;53.226;-1.296;2023-08-31T07:56:49;99777.18;;;16.80;82.77
73624;BME280;61921;53.226;-1.296;2023-08-31T07:59:15;99778.90;;;16.93;82.62
73624;BME280;61921;53.226;-1.296;2023-08-31T08:01:40;99777.68;;;17.11;82.25
73624;BME280;61921;53.226;-1.296;2023-08-31T08:04:05;99781.23;;;17.13;81.16
73624;BME280;61921;53.226;-1.296;2023-08-31T08:06:31;99782.14;;;17.29;80.75
73624;BME280;61921;53.226;-1.296;2023-08-31T08:08:55;99781.21;;;17.22;80.68
73624;BME280;61921;53.226;-1.296;2023-08-31T08:11:22;99780.10;;;17.28;81.13
73624;BME280;61921;53.226;-1.296;2023-08-31T08:13:46;99781.76;;;17.50;79.01
73624;BME280;61921;53.226;-1.296;2023-08-31T08:16:11;99778.16;;;17.50;78.06
73624;BME280;61921;53.226;-1.296;2023-08-31T08:18:36;99774.99;;;17.61;78.37
73624;BME280;61921;53.226;-1.296;2023-08-31T08:21:02;99768.45;;;17.88;76.20
73624;BME280;61921;53.226;-1.296;2023-08-31T08:23:27;99769.00;;;18.08;73.90
73624;BME280;61921;53.226;-1.296;2023-08-31T08:25:52;99766.89;;;18.43;72.39
73624;BME280;61921;53.226;-1.296;2023-08-31T08:28:17;99766.85;;;18.74;71.57
73624;BME280;61921;53.226;-1.296;2023-08-31T08:30:42;99770.20;;;19.34;69.69
73624;BME280;61921;53.226;-1.296;2023-08-31T08:33:08;99770.52;;;19.85;67.85
73624;BME280;61921;53.226;-1.296;2023-08-31T08:35:33;99768.02;;;20.35;66.12
73624;BME280;61921;53.226;-1.296;2023-08-31T08:37:58;99765.95;;;20.80;63.15
73624;BME280;61921;53.226;-1.296;2023-08-31T08:40:24;99770.59;;;21.09;62.71
73624;BME280;61921;53.226;-1.296;2023-08-31T08:42:53;99772.11;;;21.30;62.01
73624;BME280;61921;53.226;-1.296;2023-08-31T08:45:15;99772.59;;;21.17;61.93
73624;BME280;61921;53.226;-1.296;2023-08-31T08:47:41;99771.76;;;20.48;63.19
73624;BME280;61921;53.226;-1.296;2023-08-31T08:50:06;99772.52;;;20.52;62.57
73624;BME280;61921;53.226;-1.296;2023-08-31T08:52:30;99769.24;;;20.33;61.36
73624;BME280;61921;53.226;-1.296;2023-08-31T08:54:56;99769.01;;;20.37;61.88
73624;BME280;61921;53.226;-1.296;2023-08-31T08:57:20;99772.14;;;20.42;61.04
73624;BME280;61921;53.226;-1.296;2023-08-31T08:59:46;99774.03;;;19.94;60.63
73624;BME280;61921;53.226;-1.296;2023-08-31T09:02:11;99773.92;;;19.69;61.76
73624;BME280;61921;53.226;-1.296;2023-08-31T09:04:36;99773.91;;;20.01;61.03
73624;BME280;61921;53.226;-1.296;2023-08-31T09:07:01;99774.98;;;20.09;58.32
73624;BME280;61921;53.226;-1.296;2023-08-31T09:09:26;99772.33;;;20.45;59.83
73624;BME280;61921;53.226;-1.296;2023-08-31T09:11:51;99774.73;;;20.51;58.79
73624;BME280;61921;53.226;-1.296;2023-08-31T09:14:17;99771.25;;;20.68;57.36
73624;BME280;61921;53.226;-1.296;2023-08-31T09:16:44;99767.67;;;20.14;58.58
73624;BME280;61921;53.226;-1.296;2023-08-31T09:19:18;99768.15;;;19.95;57.53
73624;BME280;61921;53.226;-1.296;2023-08-31T09:21:35;99771.71;;;20.58;56.53
73624;BME280;61921;53.226;-1.296;2023-08-31T09:23:57;99767.36;;;21.04;56.12
73624;BME280;61921;53.226;-1.296;2023-08-31T09:26:22;99766.60;;;21.19;55.32
73624;BME280;61921;53.226;-1.296;2023-08-31T09:28:49;99763.38;;;21.20;55.74
73624;BME280;61921;53.226;-1.296;2023-08-31T09:31:13;99756.35;;;20.90;55.37
73624;BME280;61921;53.226;-1.296;2023-08-31T09:33:37;99753.60;;;20.88;55.46
73624;BME280;61921;53.226;-1.296;2023-08-31T09:36:05;99757.00;;;20.83;55.73
73624;BME280;61921;53.226;-1.296;2023-08-31T09:38:27;99761.53;;;21.06;56.26
73624;BME280;61921;53.226;-1.296;2023-08-31T09:43:19;99755.65;;;20.91;55.08
73624;BME280;61921;53.226;-1.296;2023-08-31T09:45:43;99755.22;;;21.34;54.73
73624;BME280;61921;53.226;-1.296;2023-08-31T09:48:08;99754.01;;;21.28;52.83
73624;BME280;61921;53.226;-1.296;2023-08-31T09:50:33;99751.45;;;21.44;50.76
73624;BME280;61921;53.226;-1.296;2023-08-31T09:53:01;99755.20;;;21.22;51.48
73624;BME280;61921;53.226;-1.296;2023-08-31T09:55:25;99755.79;;;21.33;49.84
73624;BME280;61921;53.226;-1.296;2023-08-31T09:57:48;99758.46;;;21.32;49.73
73624;BME280;61921;53.226;-1.296;2023-08-31T10:00:14;99754.58;;;21.59;49.55
73624;BME280;61921;53.226;-1.296;2023-08-31T10:02:39;99754.09;;;21.84;47.34
73624;BME280;61921;53.226;-1.296;2023-08-31T10:05:05;99752.66;;;22.35;47.46
73624;BME280;61921;53.226;-1.296;2023-08-31T10:07:29;99754.28;;;22.21;47.88
73624;BME280;61921;53.226;-1.296;2023-08-31T10:09:54;99754.98;;;22.50;48.04
73624;BME280;61921;53.226;-1.296;2023-08-31T10:12:20;99750.06;;;22.38;45.39
73624;BME280;61921;53.226;-1.296;2023-08-31T10:14:44;99744.29;;;22.34;47.40
73624;BME280;61921;53.226;-1.296;2023-08-31T10:17:09;99748.43;;;22.55;47.93
73624;BME280;61921;53.226;-1.296;2023-08-31T10:19:34;99745.48;;;22.67;47.19
73624;BME280;61921;53.226;-1.296;2023-08-31T10:21:59;99742.61;;;22.36;47.63
73624;BME280;61921;53.226;-1.296;2023-08-31T10:26:49;99737.65;;;22.30;44.90
73624;BME280;61921;53.226;-1.296;2023-08-31T10:29:25;99737.40;;;22.45;45.73
73624;BME280;61921;53.226;-1.296;2023-08-31T10:31:39;99732.82;;;22.55;45.89
73624;BME280;61921;53.226;-1.296;2023-08-31T10:34:05;99731.81;;;22.44;46.56
73624;BME280;61921;53.226;-1.296;2023-08-31T10:36:37;99731.27;;;22.25;45.94
73624;BME280;61921;53.226;-1.296;2023-08-31T10:39:01;99730.57;;;22.42;45.93
73624;BME280;61921;53.226;-1.296;2023-08-31T10:41:22;99731.08;;;22.48;46.93
73624;BME280;61921;53.226;-1.296;2023-08-31T10:43:46;99728.56;;;22.22;47.31
73624;BME280;61921;53.226;-1.296;2023-08-31T10:46:16;99726.92;;;22.41;47.06
73624;BME280;61921;53.226;-1.296;2023-08-31T10:51:01;99725.42;;;22.86;46.25
73624;BME280;61921;53.226;-1.296;2023-08-31T10:53:28;99722.73;;;22.35;46.57
73624;BME280;61921;53.226;-1.296;2023-08-31T10:55:52;99724.29;;;22.28;47.81
73624;BME280;61921;53.226;-1.296;2023-08-31T10:58:16;99722.78;;;22.13;46.54
73624;BME280;61921;53.226;-1.296;2023-08-31T11:00:47;99719.47;;;22.58;46.76
73624;BME280;61921;53.226;-1.296;2023-08-31T11:03:06;99720.44;;;23.17;45.19
73624;BME280;61921;53.226;-1.296;2023-08-31T11:05:32;99720.32;;;23.33;43.30
73624;BME280;61921;53.226;-1.296;2023-08-31T11:07:57;99715.48;;;23.60;41.99
73624;BME280;61921;53.226;-1.296;2023-08-31T11:10:23;99717.08;;;23.36;41.88
73624;BME280;61921;53.226;-1.296;2023-08-31T11:12:51;99710.26;;;22.51;43.38
73624;BME280;61921;53.226;-1.296;2023-08-31T11:15:14;99718.62;;;22.64;45.47
73624;BME280;61921;53.226;-1.296;2023-08-31T11:17:39;99721.30;;;22.15;45.73
73624;BME280;61921;53.226;-1.296;2023-08-31T11:20:05;99714.39;;;22.19;45.21
73624;BME280;61921;53.226;-1.296;2023-08-31T11:22:28;99712.32;;;22.69;45.89
73624;BME280;61921;53.226;-1.296;2023-08-31T11:24:54;99712.48;;;22.66;46.11
73624;BME280;61921;53.226;-1.296;2023-08-31T11:27:19;99715.65;;;22.90;45.71
73624;BME280;61921;53.226;-1.296;2023-08-31T11:29:44;99712.82;;;22.77;44.83
73624;BME280;61921;53.226;-1.296;2023-08-31T11:32:09;99709.37;;;22.94;44.11
73624;BME280;61921;53.226;-1.296;2023-08-31T11:34:35;99707.53;;;23.48;43.52
73624;BME280;61921;53.226;-1.296;2023-08-31T11:37:00;99699.51;;;23.54;42.49
73624;BME280;61921;53.226;-1.296;2023-08-31T11:39:26;99698.05;;;23.35;42.01
73624;BME280;61921;53.226;-1.296;2023-08-31T11:41:51;99703.77;;;23.28;43.98
73624;BME280;61921;53.226;-1.296;2023-08-31T11:44:17;99702.37;;;23.26;45.04
73624;BME280;61921;53.226;-1.296;2023-08-31T11:46:42;99704.66;;;23.54;44.27
73624;BME280;61921;53.226;-1.296;2023-08-31T11:49:07;99704.62;;;23.55;42.68
73624;BME280;61921;53.226;-1.296;2023-08-31T11:51:33;99699.06;;;23.33;42.82
73624;BME280;61921;53.226;-1.296;2023-08-31T11:53:57;99694.49;;;23.04;42.81
73624;BME280;61921;53.226;-1.296;2023-08-31T11:56:23;99694.90;;;23.38;41.91
73624;BME280;61921;53.226;-1.296;2023-08-31T11:58:51;99691.68;;;23.54;40.61
73624;BME280;61921;53.226;-1.296;2023-08-31T12:01:18;99692.41;;;23.23;42.39
73624;BME280;61921;53.226;-1.296;2023-08-31T12:03:43;99696.41;;;23.29;41.68
73624;BME280;61921;53.226;-1.296;2023-08-31T12:06:04;99692.77;;;23.30;41.82
73624;BME280;61921;53.226;-1.296;2023-08-31T12:08:29;99699.35;;;23.16;42.23
73624;BME280;61921;53.226;-1.296;2023-08-31T12:10:54;99693.55;;;22.60;41.79
73624;BME280;61921;53.226;-1.296;2023-08-31T12:13:21;99695.85;;;22.94;41.66
73624;BME280;61921;53.226;-1.296;2023-08-31T12:15:45;99689.87;;;23.02;42.55
73624;BME280;61921;53.226;-1.296;2023-08-31T12:18:12;99693.66;;;23.20;42.41
73624;BME280;61921;53.226;-1.296;2023-08-31T12:20:44;99694.60;;;23.52;41.64
73624;BME280;61921;53.226;-1.296;2023-08-31T12:23:01;99694.51;;;23.36;42.29
73624;BME280;61921;53.226;-1.296;2023-08-31T12:25:27;99695.02;;;23.61;41.51
73624;BME280;61921;53.226;-1.296;2023-08-31T12:27:51;99695.54;;;23.40;42.57
73624;BME280;61921;53.226;-1.296;2023-08-31T12:30:16;99687.77;;;23.86;41.27
73624;BME280;61921;53.226;-1.296;2023-08-31T12:32:41;99687.48;;;24.28;40.38
73624;BME280;61921;53.226;-1.296;2023-08-31T12:35:06;99690.65;;;23.48;41.16
73624;BME280;61921;53.226;-1.296;2023-08-31T12:37:31;99692.03;;;23.17;42.21
73624;BME280;61921;53.226;-1.296;2023-08-31T12:39:56;99688.40;;;23.45;42.32
73624;BME280;61921;53.226;-1.296;2023-08-31T12:42:21;99680.45;;;23.73;41.14
73624;BME280;61921;53.226;-1.296;2023-08-31T12:44:46;99679.49;;;23.97;40.46
73624;BME280;61921;53.226;-1.296;2023-08-31T12:47:11;99681.46;;;23.79;39.78